Weather History for Zapata, TX

Change the Weather History Date:

Wednesday, February 20, 2013

  Actual Average (KLRD) Record (KLRD)
Temperature  
Mean Temperature 74 °F 62 °F  
Max Temperature 84 °F 73 °F 103 °F (1986)
Min Temperature 64 °F 51 °F 25 °F (1908)
Degree Days  
Heating Degree Days 0 5  
Month to date heating degree days 129  
Since 1 July heating degree days 808  
Cooling Degree Days 9 2  
Month to date cooling degree days 36  
Year to date cooling degree days 64  
Growing Degree Days 24 (Base 50)    
Moisture  
Dew Point 60 °F    
Average Humidity 66    
Maximum Humidity 91    
Minimum Humidity 37    
Precipitation  
Precipitation 0.00 in 0.03 in 2.05 in (1958)
Month to date precipitation 0.66  
Year to date precipitation 1.56  
Sea Level Pressure  
Sea Level Pressure 29.79 in    
Wind  
Wind Speed 12 mph (SE)    
Max Wind Speed 20 mph    
Max Gust Speed 30 mph    
Visibility 10 miles    
Events Rain    
T = Trace of Precipitation, MM = Missing Value Source: NWS Daily Summary

Daily Weather History Graph

Daily Weather History Graph

Search for Another Location

Airport:

Trip Planner

Search our weather history database for the weather conditions in past years. The results will help you decide how hot, cold, wet, or windy it might be!

Date:

Astronomy

Feb. 20, 2013 Rise Set
Actual Time 7:09 AM CST 6:32 PM CST
Civil Twilight 6:45 AM CST 6:56 PM CST
Nautical Twilight 6:18 AM CST 7:23 PM CST
Astronomical Twilight 5:51 AM CST 7:50 PM CST
Moon 2:10 PM CST (2/20) 3:14 AM CST (2/20)
Length of Visible Light 12h 10m
Length of Day
11h 23m
Waxing Gibbous, 76% of the Moon is Illuminated
Feb 20
Waxing Gibbous
Feb 25
Full
Mar 4
Last Quarter
Mar 11
New
Mar 19
First Quarter

Hourly Weather History & Observations

Time (CST) Temp. Heat Index Dew Point Humidity Pressure Visibility Wind Dir Wind Speed Gust Speed Precip Events Conditions
12:15 AM 65.7 °F - 57.2 °F 74% 29.98 in 10.0 mi ESE 9.2 mph - N/A   Overcast
12:35 AM 65.3 °F - 57.9 °F 77% 29.98 in 10.0 mi East 8.1 mph - N/A   Overcast
12:55 AM 65.8 °F - 58.3 °F 77% 29.97 in 10.0 mi East 6.9 mph 17.3 mph N/A   Overcast
1:15 AM 65.3 °F - 59.2 °F 81% 29.96 in 5.0 mi ESE 11.5 mph - N/A Rain Rain
1:35 AM 64.6 °F - 61.3 °F 89% 29.97 in 4.0 mi East 6.9 mph - N/A   Light Drizzle
1:55 AM 64.6 °F - 61.7 °F 90% 29.97 in 7.0 mi East 5.8 mph - N/A Rain Light Rain
2:15 AM 64.8 °F - 62.1 °F 91% 29.95 in 10.0 mi East 6.9 mph - N/A   Drizzle
2:35 AM 64.9 °F - 62.1 °F 90% 29.94 in 10.0 mi East 9.2 mph - N/A   Overcast
2:55 AM 65.7 °F - 62.1 °F 88% 29.94 in 10.0 mi ESE 8.1 mph - N/A   Overcast
3:15 AM 66.4 °F - 61.3 °F 84% 29.93 in 10.0 mi ESE 8.1 mph - N/A   Overcast
3:35 AM 66.7 °F - 61.2 °F 82% 29.93 in 10.0 mi ESE 9.2 mph - N/A   Overcast
3:55 AM 67.1 °F - 61.3 °F 82% 29.92 in 10.0 mi ESE 10.4 mph - N/A   Overcast
4:15 AM 67.3 °F - 61.5 °F 82% 29.92 in 10.0 mi ESE 11.5 mph - N/A   Overcast
4:35 AM 67.5 °F - 61.5 °F 81% 29.92 in 10.0 mi ESE 13.8 mph - N/A   Overcast
4:55 AM 67.5 °F - 61.3 °F 81% 29.91 in 10.0 mi ESE 12.7 mph 19.6 mph N/A   Overcast
5:15 AM 67.8 °F - 61.3 °F 80% 29.91 in 10.0 mi ESE 9.2 mph 19.6 mph N/A   Overcast
5:35 AM 67.6 °F - 61.7 °F 81% 29.91 in 10.0 mi ESE 13.8 mph - N/A   Overcast
5:55 AM 67.6 °F - 61.7 °F 81% 29.90 in 10.0 mi ESE 11.5 mph 17.3 mph N/A   Overcast
6:15 AM 67.6 °F - 61.7 °F 81% 29.90 in 10.0 mi ESE 11.5 mph 18.4 mph N/A   Overcast
6:35 AM 68.0 °F - 61.7 °F 80% 29.90 in 10.0 mi ESE 12.7 mph 16.1 mph N/A   Overcast
6:55 AM 68.0 °F - 61.7 °F 80% 29.92 in 10.0 mi ESE 9.2 mph - N/A   Overcast
7:15 AM 68.2 °F - 61.9 °F 80% 29.91 in 10.0 mi ESE 13.8 mph - N/A   Overcast
7:35 AM 68.4 °F - 61.9 °F 80% 29.90 in 10.0 mi ESE 13.8 mph 20.7 mph N/A   Overcast
7:55 AM 68.5 °F - 62.1 °F 80% 29.90 in 10.0 mi SE 12.7 mph - N/A   Overcast
8:15 AM 68.9 °F - 62.2 °F 79% 29.90 in 10.0 mi SE 13.8 mph 18.4 mph N/A   Overcast
8:35 AM 69.3 °F - 62.4 °F 79% 29.90 in 10.0 mi SE 10.4 mph 20.7 mph N/A   Overcast
9:15 AM 70.0 °F - 62.2 °F 76% 29.89 in 10.0 mi SE 10.4 mph 20.7 mph N/A   Overcast
9:35 AM 70.5 °F - 62.1 °F 74% 29.89 in 10.0 mi SE 11.5 mph 18.4 mph N/A   Overcast
9:55 AM 70.9 °F - 62.1 °F 74% 29.87 in 10.0 mi SSE 13.8 mph 20.7 mph N/A   Overcast
10:15 AM 71.6 °F - 61.9 °F 71% 29.87 in 10.0 mi SE 16.1 mph 23.0 mph N/A   Overcast
10:35 AM 72.5 °F - 61.7 °F 69% 29.85 in 10.0 mi SSE 15.0 mph 24.2 mph N/A   Overcast
10:55 AM 72.7 °F - 61.5 °F 68% 29.85 in 10.0 mi SSE 16.1 mph 25.3 mph N/A   Overcast
11:15 AM 73.4 °F - 61.0 °F 65% 29.85 in 10.0 mi SE 15.0 mph 23.0 mph N/A   Overcast
11:35 AM 74.3 °F - 60.8 °F 63% 29.84 in 10.0 mi SSE 13.8 mph 21.9 mph N/A   Overcast
11:55 AM 75.2 °F - 60.3 °F 60% 29.83 in 10.0 mi SSE 13.8 mph 24.2 mph N/A   Overcast
12:15 PM 77.5 °F - 59.9 °F 54% 29.81 in 10.0 mi SSE 17.3 mph 24.2 mph N/A   Overcast
12:35 PM 77.0 °F - 59.7 °F 55% 29.80 in 10.0 mi SSE 19.6 mph 25.3 mph N/A   Overcast
12:55 PM 77.2 °F - 59.4 °F 54% 29.78 in 10.0 mi SE 15.0 mph 24.2 mph N/A   Overcast
1:15 PM 78.6 °F - 58.8 °F 50% 29.77 in 10.0 mi SSE 15.0 mph 23.0 mph N/A   Overcast
1:35 PM 78.6 °F - 59.0 °F 51% 29.76 in 10.0 mi SE 16.1 mph 21.9 mph N/A   Overcast
1:55 PM 79.0 °F - 59.0 °F 50% 29.74 in 10.0 mi SE 9.2 mph 18.4 mph N/A   Overcast
2:15 PM 80.1 °F 80.7 °F 59.0 °F 48% 29.72 in 10.0 mi SE 12.7 mph 19.6 mph N/A   Overcast
2:35 PM 81.5 °F 81.6 °F 58.3 °F 45% 29.71 in 10.0 mi SE 12.7 mph - N/A   Mostly Cloudy
2:55 PM 82.6 °F 82.2 °F 57.2 °F 42% 29.69 in 10.0 mi SSE 12.7 mph 19.6 mph N/A   Scattered Clouds
3:15 PM 82.8 °F 82.4 °F 57.4 °F 42% 29.68 in 10.0 mi SE 9.2 mph - N/A   Clear
3:35 PM 84.9 °F 83.9 °F 56.5 °F 38% 29.66 in 10.0 mi SE 18.4 mph 24.2 mph N/A   Clear
3:55 PM 84.2 °F 83.3 °F 56.5 °F 39% 29.66 in 10.0 mi SSE 12.7 mph 21.9 mph N/A   Clear
4:15 PM 84.6 °F 83.4 °F 55.8 °F 37% 29.66 in 10.0 mi SE 18.4 mph 23.0 mph N/A   Clear
4:35 PM 84.6 °F 83.5 °F 56.5 °F 38% 29.65 in 10.0 mi SE 13.8 mph 21.9 mph N/A   Clear
4:55 PM 84.2 °F 83.5 °F 57.2 °F 40% 29.64 in 10.0 mi ESE 16.1 mph 25.3 mph N/A   Clear
5:15 PM 83.7 °F 83.1 °F 57.6 °F 41% 29.64 in 10.0 mi SE 16.1 mph 23.0 mph N/A   Clear
5:35 PM 82.6 °F 82.3 °F 58.1 °F 43% 29.64 in 10.0 mi SE 15.0 mph 25.3 mph N/A   Clear
5:55 PM 81.7 °F 81.9 °F 59.2 °F 46% 29.63 in 10.0 mi ESE 15.0 mph 23.0 mph N/A   Clear
6:15 PM 79.7 °F - 60.3 °F 51% 29.63 in 10.0 mi SE 18.4 mph 26.5 mph N/A   Clear
6:35 PM 78.3 °F - 60.6 °F 54% 29.63 in 10.0 mi SE 19.6 mph 26.5 mph N/A   Clear
6:55 PM 77.2 °F - 60.6 °F 56% 29.63 in 10.0 mi ESE 15.0 mph 26.5 mph N/A   Clear
7:15 PM 76.3 °F - 60.3 °F 57% 29.63 in 10.0 mi ESE 15.0 mph 24.2 mph N/A   Clear
7:35 PM 76.1 °F - 59.9 °F 57% 29.63 in 10.0 mi SE 16.1 mph 24.2 mph N/A   Clear
7:55 PM 75.4 °F - 59.9 °F 58% 29.63 in 10.0 mi SE 17.3 mph 23.0 mph N/A   Clear
8:15 PM 75.2 °F - 59.4 °F 58% 29.63 in 10.0 mi SE 17.3 mph 27.6 mph N/A   Clear
8:35 PM 74.8 °F - 59.0 °F 58% 29.63 in 10.0 mi SE 16.1 mph 29.9 mph N/A   Clear
8:55 PM 74.3 °F - 59.2 °F 59% 29.63 in 10.0 mi SE 17.3 mph 27.6 mph N/A   Clear
9:15 PM 73.8 °F - 59.5 °F 61% 29.64 in 10.0 mi SE 13.8 mph 27.6 mph N/A   Clear
9:35 PM 73.0 °F - 60.1 °F 64% 29.64 in 10.0 mi SE 15.0 mph 25.3 mph N/A   Clear
9:55 PM 72.5 °F - 60.8 °F 67% 29.64 in 10.0 mi SE 16.1 mph 24.2 mph N/A   Clear
10:15 PM 72.1 °F - 61.0 °F 68% 29.64 in 10.0 mi SE 13.8 mph 19.6 mph N/A   Clear
10:55 PM 71.6 °F - 61.7 °F 71% 29.63 in 10.0 mi SE 12.7 mph 19.6 mph N/A   Clear
11:15 PM 71.6 °F - 61.7 °F 71% 29.61 in 10.0 mi SE 15.0 mph 23.0 mph N/A   Clear
11:35 PM 71.2 °F - 61.9 °F 72% 29.61 in 10.0 mi SE 9.2 mph 26.5 mph N/A   Clear
11:55 PM 71.1 °F - 62.2 °F 74% 29.61 in 10.0 mi SE 12.7 mph 18.4 mph N/A   Clear